createdAt,value
2023-01-21T00:00:51.620Z,93821.00
2023-01-21T00:04:55.101Z,93830.00
2023-01-21T00:09:26.254Z,93829.00
2023-01-21T00:13:29.700Z,93824.00
2023-01-21T00:17:36.061Z,93827.00
2023-01-21T00:21:41.866Z,93833.00
2023-01-21T00:25:46.970Z,93826.00
2023-01-21T00:29:50.438Z,93825.00
2023-01-21T00:33:54.226Z,93827.00
2023-01-21T00:37:57.644Z,93819.00
2023-01-21T00:42:28.193Z,93820.00
2023-01-21T00:46:31.680Z,93830.00
2023-01-21T00:50:37.305Z,93832.00
2023-01-21T00:54:40.783Z,93826.00
2023-01-21T00:58:45.810Z,93822.00
2023-01-21T01:02:49.460Z,93822.00
2023-01-21T01:06:53.005Z,93833.00
2023-01-21T01:10:57.401Z,93824.00
2023-01-21T01:15:02.229Z,93814.00
2023-01-21T01:19:05.809Z,93818.00
2023-01-21T01:23:15.740Z,93825.00
2023-01-21T01:27:19.115Z,93828.00
2023-01-21T01:31:24.128Z,93827.00
2023-01-21T01:36:17.325Z,93829.00
2023-01-21T01:40:21.349Z,93830.00
2023-01-21T01:44:58.585Z,93821.00
2023-01-21T01:49:19.424Z,93817.00
2023-01-21T01:53:27.270Z,93809.00
2023-01-21T01:57:35.800Z,93810.00
2023-01-21T02:01:41.553Z,93815.00
2023-01-21T02:05:46.635Z,93804.00
2023-01-21T02:09:51.136Z,93805.00
2023-01-21T02:13:58.298Z,93805.00
2023-01-21T02:18:09.611Z,93791.00
2023-01-21T02:22:22.936Z,93790.00
2023-01-21T02:26:58.780Z,93789.00
2023-01-21T02:31:34.117Z,93796.00
2023-01-21T02:35:51.840Z,93803.00
2023-01-21T02:40:21.059Z,93797.00
2023-01-21T02:44:52.469Z,93787.00
2023-01-21T02:49:01.271Z,93793.00
2023-01-21T02:53:06.407Z,93777.00
2023-01-21T02:57:14.096Z,93797.00
2023-01-21T03:01:45.934Z,93766.00
2023-01-21T03:06:30.267Z,93782.00
2023-01-21T03:10:41.725Z,93796.00
2023-01-21T03:15:15.266Z,93788.00
2023-01-21T03:19:20.806Z,93792.00
2023-01-21T03:27:56.448Z,93792.00
2023-01-21T03:32:06.370Z,93786.00
2023-01-21T03:36:14.360Z,93773.00
2023-01-21T03:40:30.983Z,93774.00
2023-01-21T03:44:38.381Z,93779.00
2023-01-21T03:48:45.554Z,93764.00
2023-01-21T03:58:23.964Z,93780.00
2023-01-21T04:02:37.857Z,93776.00
2023-01-21T04:06:41.368Z,93766.00
2023-01-21T04:10:44.873Z,93760.00
2023-01-21T04:15:13.852Z,93772.00
2023-01-21T04:20:14.615Z,93773.00
2023-01-21T04:24:19.597Z,93783.00
2023-01-21T04:28:23.198Z,93772.00
2023-01-21T04:32:26.685Z,93770.00
2023-01-21T04:36:30.293Z,93788.00
2023-01-21T04:40:35.128Z,93777.00
2023-01-21T04:44:38.462Z,93774.00
2023-01-21T04:54:12.446Z,93794.00
2023-01-21T04:58:43.247Z,93787.00
2023-01-21T05:02:46.660Z,93795.00
2023-01-21T05:07:21.692Z,93792.00
2023-01-21T05:11:25.462Z,93799.00
2023-01-21T05:15:30.285Z,93792.00
2023-01-21T05:19:45.042Z,93809.00
2023-01-21T05:23:48.450Z,93794.00
2023-01-21T05:27:55.860Z,93795.00
2023-01-21T05:32:25.940Z,93806.00
2023-01-21T05:36:41.572Z,93811.00
2023-01-21T05:40:44.964Z,93824.00
2023-01-21T05:44:48.531Z,93812.00
2023-01-21T05:48:53.397Z,93805.00
2023-01-21T05:53:14.217Z,93829.00
2023-01-21T05:57:17.669Z,93803.00
2023-01-21T06:01:21.071Z,93807.00
2023-01-21T06:05:27.161Z,93814.00
2023-01-21T06:09:30.562Z,93816.00
2023-01-21T06:14:01.733Z,93818.00
2023-01-21T06:18:05.563Z,93820.00
2023-01-21T06:26:56.518Z,93831.00
2023-01-21T06:31:00.103Z,93829.00
2023-01-21T06:35:06.499Z,93840.00
2023-01-21T06:39:11.601Z,93834.00
2023-01-21T06:43:15.089Z,93842.00
2023-01-21T06:47:18.531Z,93840.00
2023-01-21T06:51:22.979Z,93842.00
2023-01-21T06:55:27.876Z,93852.00
2023-01-21T06:59:54.416Z,93856.00
2023-01-21T07:03:57.794Z,93854.00
2023-01-21T07:08:01.415Z,93857.00
2023-01-21T07:12:09.654Z,93862.00
2023-01-21T07:16:13.011Z,93867.00
2023-01-21T07:20:16.981Z,93882.00
2023-01-21T07:24:36.097Z,93886.00
2023-01-21T07:28:40.935Z,93888.00
2023-01-21T07:33:10.598Z,93901.00
2023-01-21T07:37:14.006Z,93892.00
2023-01-21T07:41:31.660Z,93891.00
2023-01-21T07:45:38.720Z,93886.00
2023-01-21T07:49:42.233Z,93891.00
2023-01-21T07:53:46.951Z,93892.00
2023-01-21T07:57:50.424Z,93887.00
2023-01-21T08:01:55.248Z,93890.00
2023-01-21T08:06:08.248Z,93892.00
2023-01-21T08:10:12.358Z,93902.00
2023-01-21T08:14:15.982Z,93907.00
2023-01-21T08:18:22.336Z,93908.00
2023-01-21T08:22:26.043Z,93923.00
2023-01-21T08:26:29.500Z,93910.00
2023-01-21T08:30:46.034Z,93908.00
2023-01-21T08:34:51.745Z,93906.00
2023-01-21T08:38:55.416Z,93920.00
2023-01-21T08:43:03.031Z,93916.00
2023-01-21T08:47:06.557Z,93913.00
2023-01-21T08:51:39.190Z,93929.00
2023-01-21T08:55:43.431Z,93920.00
2023-01-21T08:59:46.944Z,93921.00
2023-01-21T09:03:50.444Z,93929.00
2023-01-21T09:07:58.151Z,93936.00
2023-01-21T09:12:01.990Z,93944.00
2023-01-21T09:17:13.382Z,93956.00
2023-01-21T09:21:17.537Z,93965.00
2023-01-21T09:25:26.507Z,93949.00
2023-01-21T09:29:30.034Z,93963.00
2023-01-21T09:34:00.466Z,93974.00
2023-01-21T09:38:04.461Z,93968.00
2023-01-21T09:42:19.734Z,93960.00
2023-01-21T09:46:34.317Z,93966.00
2023-01-21T09:50:40.132Z,93978.00
2023-01-21T09:54:43.708Z,93970.00
2023-01-21T10:03:45.089Z,93976.00
2023-01-21T10:08:00.396Z,93973.00
2023-01-21T10:12:37.207Z,93966.00
2023-01-21T10:16:49.354Z,93946.00
2023-01-21T10:20:58.171Z,93958.00
2023-01-21T10:25:23.062Z,93948.00
2023-01-21T10:29:27.566Z,93946.00
2023-01-21T10:34:35.743Z,93950.00
2023-01-21T10:38:49.134Z,93944.00
2023-01-21T10:44:01.568Z,93944.00
2023-01-21T10:48:31.237Z,93946.00
2023-01-21T10:52:47.584Z,93936.00
2023-01-21T10:56:58.047Z,93946.00
2023-01-21T11:01:06.412Z,93954.00
2023-01-21T11:05:34.714Z,93942.00
2023-01-21T11:09:41.438Z,93940.00
2023-01-21T11:13:46.382Z,93934.00
2023-01-21T11:17:53.919Z,93949.00
2023-01-21T11:22:07.995Z,93946.00
2023-01-21T11:26:32.035Z,93941.00
2023-01-21T11:30:53.183Z,93920.00
2023-01-21T11:35:18.905Z,93911.00
2023-01-21T11:39:24.863Z,93904.00
2023-01-21T11:43:42.057Z,93901.00
2023-01-21T11:52:27.420Z,93895.00
2023-01-21T11:56:30.856Z,93890.00
2023-01-21T12:01:01.356Z,93890.00
2023-01-21T12:05:31.562Z,93896.00
2023-01-21T12:09:35.117Z,93895.00
2023-01-21T12:13:49.412Z,93885.00
2023-01-21T12:18:18.234Z,93859.00
2023-01-21T12:22:45.632Z,93863.00
2023-01-21T12:31:29.606Z,93881.00
2023-01-21T12:35:37.989Z,93870.00
2023-01-21T12:39:50.817Z,93866.00
2023-01-21T12:44:04.831Z,93864.00
2023-01-21T12:48:23.823Z,93863.00
2023-01-21T12:52:41.171Z,93873.00
2023-01-21T12:56:52.199Z,93870.00
2023-01-21T13:00:57.103Z,93873.00
2023-01-21T13:05:38.766Z,93870.00
2023-01-21T13:09:49.492Z,93869.00
2023-01-21T13:14:26.451Z,93873.00
2023-01-21T13:18:36.254Z,93878.00
2023-01-21T13:22:43.855Z,93887.00
2023-01-21T13:27:37.594Z,93885.00
2023-01-21T13:32:09.780Z,93891.00
2023-01-21T13:36:43.619Z,93879.00
2023-01-21T13:41:09.933Z,93892.00
2023-01-21T13:45:27.106Z,93891.00
2023-01-21T13:50:04.486Z,93889.00
2023-01-21T13:54:30.551Z,93894.00
2023-01-21T13:58:39.886Z,93895.00
2023-01-21T14:02:50.704Z,93890.00
2023-01-21T14:17:09.233Z,93908.00
2023-01-21T14:21:45.024Z,93904.00
2023-01-21T14:26:23.371Z,93916.00
2023-01-21T14:30:32.082Z,93939.00
2023-01-21T14:34:59.182Z,93935.00
2023-01-21T14:39:11.272Z,93933.00
2023-01-21T14:43:48.586Z,93933.00
2023-01-21T14:47:54.267Z,93949.00
2023-01-21T14:51:59.901Z,93957.00
2023-01-21T14:56:10.844Z,93970.00
2023-01-21T15:00:26.966Z,93965.00
2023-01-21T15:04:34.454Z,93963.00
2023-01-21T15:13:35.080Z,93982.00
2023-01-21T15:18:25.706Z,93985.00
2023-01-21T15:22:46.877Z,93986.00
2023-01-21T15:27:19.535Z,93985.00
2023-01-21T15:31:44.195Z,93993.00
2023-01-21T15:35:49.762Z,93996.00
2023-01-21T15:40:04.879Z,93986.00
2023-01-21T15:44:48.192Z,94004.00
2023-01-21T15:49:19.397Z,94001.00
2023-01-21T15:53:46.249Z,93997.00
2023-01-21T15:57:57.962Z,94005.00
2023-01-21T16:08:05.013Z,94012.00
2023-01-21T16:12:23.066Z,94020.00
2023-01-21T16:16:42.843Z,94020.00
2023-01-21T16:20:48.909Z,94013.00
2023-01-21T16:24:56.826Z,94018.00
2023-01-21T16:29:02.261Z,94016.00
2023-01-21T16:33:10.699Z,94021.00
2023-01-21T16:37:15.447Z,94024.00
2023-01-21T16:41:29.727Z,94032.00
2023-01-21T16:45:38.373Z,94023.00
2023-01-21T16:49:43.455Z,94032.00
2023-01-21T16:53:46.833Z,94039.00
2023-01-21T16:58:40.210Z,94029.00
2023-01-21T17:02:45.200Z,94031.00
2023-01-21T17:06:49.101Z,94042.00
2023-01-21T17:10:59.443Z,94042.00
2023-01-21T17:19:51.663Z,94050.00
2023-01-21T17:23:58.223Z,94044.00
2023-01-21T17:28:53.658Z,94049.00
2023-01-21T17:32:59.434Z,94058.00
2023-01-21T17:37:05.722Z,94053.00
2023-01-21T17:41:25.458Z,94072.00
2023-01-21T17:45:32.279Z,94070.00
2023-01-21T17:49:37.482Z,94074.00
2023-01-21T17:53:46.195Z,94066.00
2023-01-21T17:57:52.075Z,94049.00
2023-01-21T18:02:05.417Z,94069.00
2023-01-21T18:06:22.074Z,94081.00
2023-01-21T18:10:29.031Z,94084.00
2023-01-21T18:15:02.885Z,94073.00
2023-01-21T18:19:06.327Z,94083.00
2023-01-21T18:24:11.292Z,94084.00
2023-01-21T18:28:20.186Z,94091.00
2023-01-21T18:32:24.479Z,94096.00
2023-01-21T18:36:27.943Z,94088.00
2023-01-21T18:41:21.976Z,94099.00
2023-01-21T18:45:54.275Z,94100.00
2023-01-21T18:50:03.116Z,94093.00
2023-01-21T18:54:07.446Z,94100.00
2023-01-21T18:58:14.753Z,94098.00
2023-01-21T19:02:22.054Z,94090.00
2023-01-21T19:06:26.647Z,94102.00
2023-01-21T19:10:41.470Z,94110.00
2023-01-21T19:14:44.862Z,94108.00
2023-01-21T19:18:58.893Z,94102.00
2023-01-21T19:23:02.256Z,94104.00
2023-01-21T19:27:11.637Z,94104.00
2023-01-21T19:31:15.078Z,94104.00
2023-01-21T19:35:32.604Z,94103.00
2023-01-21T19:39:36.108Z,94109.00
2023-01-21T19:43:39.667Z,94101.00
2023-01-21T19:48:57.603Z,94121.00
2023-01-21T19:53:02.532Z,94113.00
2023-01-21T19:57:06.145Z,94126.00
2023-01-21T20:01:21.895Z,94119.00
2023-01-21T20:05:26.428Z,94127.00
2023-01-21T20:09:32.223Z,94121.00
2023-01-21T20:14:00.281Z,94131.00
2023-01-21T20:18:05.259Z,94127.00
2023-01-21T20:22:14.394Z,94136.00
2023-01-21T20:26:32.303Z,94153.00
2023-01-21T20:30:35.888Z,94148.00
2023-01-21T20:35:08.824Z,94154.00
2023-01-21T20:39:14.381Z,94159.00
2023-01-21T20:43:36.773Z,94164.00
2023-01-21T20:47:49.676Z,94164.00
2023-01-21T20:51:57.750Z,94189.00
2023-01-21T20:56:03.375Z,94180.00
2023-01-21T21:00:31.400Z,94185.00
2023-01-21T21:04:41.085Z,94192.00
2023-01-21T21:08:44.801Z,94188.00
2023-01-21T21:12:48.349Z,94202.00
2023-01-21T21:17:11.160Z,94206.00
2023-01-21T21:21:16.245Z,94197.00
2023-01-21T21:25:28.827Z,94199.00
2023-01-21T21:29:32.225Z,94203.00
2023-01-21T21:34:10.179Z,94206.00
2023-01-21T21:38:17.434Z,94205.00
2023-01-21T21:43:23.584Z,94208.00
2023-01-21T21:47:49.801Z,94205.00
2023-01-21T21:51:53.333Z,94206.00
2023-01-21T21:56:33.106Z,94214.00
2023-01-21T22:00:36.527Z,94217.00
2023-01-21T22:04:40.024Z,94224.00
2023-01-21T22:08:44.633Z,94218.00
2023-01-21T22:12:49.724Z,94218.00
2023-01-21T22:16:54.157Z,94224.00
2023-01-21T22:21:23.336Z,94221.00
2023-01-21T22:25:26.854Z,94221.00
2023-01-21T22:29:31.596Z,94225.00
2023-01-21T22:33:38.603Z,94221.00
2023-01-21T22:37:42.010Z,94224.00
2023-01-21T22:41:49.821Z,94220.00
2023-01-21T22:45:57.338Z,94221.00
2023-01-21T22:50:00.851Z,94216.00
2023-01-21T23:00:37.744Z,94216.00
2023-01-21T23:04:42.608Z,94226.00
2023-01-21T23:08:46.195Z,94233.00
2023-01-21T23:12:51.011Z,94228.00
2023-01-21T23:16:54.819Z,94230.00
2023-01-21T23:20:59.565Z,94225.00
2023-01-21T23:25:16.775Z,94218.00
2023-01-21T23:29:20.251Z,94192.00
2023-01-21T23:33:40.207Z,94224.00
2023-01-21T23:37:44.995Z,94226.00
2023-01-21T23:41:48.554Z,94215.00
2023-01-21T23:45:52.106Z,94224.00
2023-01-21T23:49:55.647Z,94231.00
2023-01-21T23:54:18.754Z,94232.00
2023-01-21T23:58:22.235Z,94231.00
